Sarcobatus Flat, Nevada Weather observations

Data are for observation ending at time listed.
 Day   Time    Ave.   Ave.  Ave.  Vector   Max.   Stn.    Total    Solar   Ave.  
  of    of     Air    Rel.  Wind   Wind    Wind   Baro.  Precip.   Rad.    Soil  
Year   Day     Temp.  Hum.  Speed  Dir.    Gust   Pres.                    Temp. 
2016   (PST)    F      %     mph   deg.    mph     mb.     in.     W/m2     F   
------------------------------------------------------------------------------
 340   11:50   57.0    19    7.2    14     12.7   876.3    0.00     364    999.0
 340   12:00   57.6    19    7.8    23     14.8   876.1    0.00     494    999.0
 340   12:10   58.0    18    6.4     8     11.9   876.0    0.00     476    999.0
 340   12:20   58.3    16   10.6   339     16.8   875.8    0.00     503    999.0
 340   12:30   57.7    16   10.8   332     17.5   875.7    0.00     421    999.0
 340   12:40   58.5    14   10.8   327     15.9   875.6    0.00     520    999.0
 340   12:50   59.2    13   10.4   326     15.6   875.4    0.00     518    999.0
 340   13:00   59.5    12   10.6   323     17.7   875.3    0.00     479    999.0
 340   13:10   59.5    12   10.6   318     16.4   875.2    0.00     437    999.0
 340   13:20   59.7    11    8.7   340     16.2   875.2    0.00     407    999.0
 340   13:30   59.5    11    8.6   332     14.2   875.2    0.00     360    999.0
 340   13:40   59.3    11    7.9   327     14.8   875.1    0.00     325    999.0
 340   13:50   59.2    11    7.1   324     11.2   875.0    0.00     335    999.0
 340   14:00   59.3    11    7.3   327     11.2   875.0    0.00     376    999.0
 340   14:10   59.6    10    5.8   336     10.2   875.0    0.00     380    999.0
 340   14:20   59.5    10    6.6   342     12.3   874.9    0.00     362    999.0
 340   14:30   59.4    10    5.1   337      9.9   874.9    0.00     300    999.0
 340   14:40   59.5    10    7.5   341     12.3   874.9    0.00     290    999.0
 340   14:50   59.7    10    6.0   359     11.0   874.9    0.00     291    999.0
 340   15:00   59.7    10    7.5   346     14.0   874.8    0.00     250    999.0
 340   15:10   59.3    11    8.3   322     13.6   874.8    0.00     168    999.0
 340   15:20   58.6    11    6.8   331     11.0   874.8    0.00     103    999.0
 340   15:30   58.2    11    7.7   329     11.6   874.7    0.00      82    999.0
 340   15:40   57.5    11    8.3   336     11.5   874.7    0.00      57    999.0
 340   15:50   56.8    12    6.6   334      9.4   874.7    0.00      46    999.0
 340   16:00   55.7    12    6.0   331      8.8   874.7    0.00      33    999.0
 340   16:10   54.6    13    5.3   332      7.2   874.7    0.00      23    999.0
 340   16:20   53.2    13    3.8   332      4.7   874.7    0.00      13    999.0
 340   16:30   51.7    14    2.9   338      3.4   874.7    0.00       5    999.0
 340   16:40   50.5    14    2.6   360      3.9   874.7    0.00       2    999.0
 340   16:50   49.7    15    4.0    13      6.4   874.7    0.00       0    999.0
 340   17:00   46.5    17    5.7   355      7.5   874.8    0.00       0    999.0
 340   17:10   45.5    18    5.8   352      7.2   874.7    0.00       0    999.0
 340   17:20   45.8    19    7.1   299     10.8   874.8    0.00       0    999.0
 340   17:30   47.9    18    9.3   278     11.2   874.8    0.00       0    999.0
 340   17:40   47.9    19    7.3   291      9.3   874.9    0.00       0    999.0
 340   17:50   47.4    19    7.3   298      8.3   874.9    0.00       0    999.0
 340   18:00   44.0    22    6.6   289      7.6   874.8    0.00       0    999.0
 340   18:10   42.6    23    5.3   321      7.6   874.9    0.00       0    999.0
 340   18:20   42.5    23    4.8    24      6.1   874.9    0.00       0    999.0
 340   18:30   41.8    23    3.8    33      5.9   874.9    0.00       0    999.0
 340   18:40   41.4    24    3.9   201      5.9   874.9    0.00       0    999.0
 340   18:50   44.1    21    5.2   274      7.5   874.9    0.00       0    999.0
 340   19:00   44.0    21    6.9   306      7.9   874.9    0.00       0    999.0
 340   19:10   42.8    22    6.8   326      9.2   874.9    0.00       0    999.0
 340   19:20   41.0    23    8.1   349      9.9   874.9    0.00       0    999.0
 340   19:30   38.6    25    6.9   344      8.4   875.0    0.00       0    999.0
 340   19:40   36.9    27    4.3     2      6.4   874.9    0.00       0    999.0
 340   19:50   36.7    27    3.6     0      6.1   874.8    0.00       0    999.0
 340   20:00   36.1    27    4.6   357      6.1   874.8    0.00       0    999.0
 340   20:10   34.0    29    3.5   312      4.8   874.8    0.00       0    999.0
 340   20:20   32.1    31    4.3   335      5.3   874.9    0.00       0    999.0
 340   20:30   31.8    32    2.9   306      4.5   874.9    0.00       0    999.0
 340   20:40   31.2    32    4.2   321      5.3   874.8    0.00       0    999.0
 340   20:50   30.4    33    3.4   352      5.0   874.8    0.00       0    999.0
 340   21:00   29.8    34    4.5   323      6.6   875.0    0.00       0    999.0
 340   21:10   30.5    33    2.8   312      4.6   875.0    0.00       0    999.0
 340   21:20   29.9    33    2.1   350      3.3   875.1    0.00       0    999.0
 340   21:30   30.9    32    2.1    17      2.7   875.0    0.00       0    999.0
 340   21:40   30.1    33    1.6     4      2.5   874.9    0.00       0    999.0
 340   21:50   28.5    36    2.4   330      3.3   874.8    0.00       0    999.0
 340   22:00   28.4    37    2.2   312      2.9   874.8    0.00       0    999.0
 340   22:10   28.7    36    2.1     8      2.6   874.7    0.00       0    999.0
 340   22:20   28.8    36    1.6    41      2.5   874.6    0.00       0    999.0
 340   22:30   27.6    38    1.4     8      2.2   874.5    0.00       0    999.0
 340   22:40   27.6    39    2.0    31      2.6   874.5    0.00       0    999.0
 340   22:50   27.5    40    0.9   111      2.4   874.5    0.00       0    999.0
 340   23:00   27.3    40    1.8   118      3.6   874.4    0.00       0    999.0
 340   23:10   26.6    40    1.7    92      2.2   874.3    0.00       0    999.0
 340   23:20   26.4    41    1.4    72      2.4   874.2    0.00       0    999.0
 340   23:30   25.7    42    3.6   353      4.7   874.2    0.00       0    999.0
 340   23:40   28.6    38    3.7    13      4.8   874.1    0.00       0    999.0
 340   23:50   28.2    38    3.2    19      3.8   874.0    0.00       0    999.0
 341    0:00   26.3    40    3.0   348      4.0   873.9    0.00       0    999.0
 341    0:10   24.7    43    4.1   334      5.3   873.9    0.00       0    999.0
 341    0:20   25.5    41    3.0   338      4.1   873.8    0.00       0    999.0
 341    0:30   26.2    40    4.4   351      5.8   873.7    0.00       0    999.0
 341    0:40   25.8    41    3.3    15      4.2   873.6    0.00       0    999.0
 341    0:50   25.0    42    2.1    38      3.2   873.6    0.00       0    999.0
 341    1:00   25.1    42    2.1   316      3.6   873.6    0.00       0    999.0
 341    1:10   25.1    42    2.8   300      4.5   873.7    0.00       0    999.0
 341    1:20   23.5    45    3.8   146      5.6   873.8    0.00       0    999.0
 341    1:30   22.8    47    2.6   184      4.1   873.9    0.00       0    999.0
 341    1:40   22.5    47    1.6   109      2.3   873.9    0.00       0    999.0
 341    1:50   22.5    48    2.4    35      3.2   873.9    0.00       0    999.0
 341    2:00   23.5    46    2.8    36      4.4   874.0    0.00       0    999.0
 341    2:10   24.4    44    2.9    41      4.7   873.9    0.00       0    999.0
 341    2:20   25.0    44    1.6    70      4.1   873.9    0.00       0    999.0
 341    2:30   25.7    43    1.2    98      3.6   873.8    0.00       0    999.0
 341    2:40   26.6    42    1.5    60      3.4   873.8    0.00       0    999.0
 341    2:50   26.3    43    2.7   350      4.8   873.8    0.00       0    999.0
 341    3:00   27.5    40    1.5    32      2.6   873.8    0.00       0    999.0
 341    3:10   28.5    39    2.9    81      3.4   873.7    0.00       0    999.0
 341    3:20   28.0    41    2.9    39      5.8   873.6    0.00       0    999.0
 341    3:30   28.9    40    1.3   112      3.2   873.5    0.00       0    999.0
 341    3:40   28.8    40    1.3    86      2.5   873.4    0.00       0    999.0
 341    3:50   28.7    40    2.1    89      3.6   873.4    0.00       0    999.0
 341    4:00   27.6    42    2.4   248      5.0   873.4    0.00       0    999.0
 341    4:10   26.9    44    3.5   202      5.4   873.4    0.00       0    999.0
 341    4:20   25.9    47    2.2   216      4.3   873.3    0.00       0    999.0
 341    4:30   25.8    47    1.1   113      3.4   873.3    0.00       0    999.0
 341    4:40   24.9    49    4.2   114      5.0   873.2    0.00       0    999.0
 341    4:50   24.9    49    1.5   125      3.4   873.3    0.00       0    999.0
 341    5:00   25.1    48    2.1    80      3.0   873.2    0.00       0    999.0
 341    5:10   25.3    47    1.3    42      2.3   873.2    0.00       0    999.0
 341    5:20   25.0    47    0.9    16      1.8   873.2    0.00       0    999.0
 341    5:30   24.2    48    2.6   344      4.1   873.3    0.00       0    999.0
 341    5:40   23.8    48    1.8    17      3.4   873.2    0.00       0    999.0
 341    5:50   23.0    49    3.8     1      4.8   873.3    0.00       0    999.0
 341    6:00   22.7    50    2.3    27      4.5   873.3    0.00       0    999.0
 341    6:10   22.0    50    4.7   357      6.4   873.5    0.00       0    999.0
 341    6:20   21.4    51    1.8    11      3.3   873.4    0.00       0    999.0
 341    6:30   21.8    49    2.4    14      3.5   873.3    0.00       0    999.0
 341    6:40   19.6    53    4.6   340      6.9   873.5    0.00       1    999.0
 341    6:50   19.8    52    4.5   358      7.6   873.5    0.00       3    999.0
 341    7:00   19.6    52    3.7   358      4.9   873.6    0.00       7    999.0
 341    7:10   19.8    52    2.9   357      5.3   873.6    0.00      32    999.0
 341    7:20   21.7    49    5.1   350      6.8   873.8    0.00      72    999.0
 341    7:30   24.6    44    3.7   346      5.1   873.9    0.00      97    999.0
 341    7:40   27.7    40    1.8    33      4.3   873.8    0.00     119    999.0
 341    7:50   29.0    38    1.3   151      2.2   873.8    0.00     145    999.0
 341    8:00   31.3    35    0.5   342      1.7   873.9    0.00     177    999.0
 341    8:10   31.9    35    0.9   119      3.0   874.0    0.00     204    999.0
 341    8:20   33.7    32    1.1   127      4.1   874.0    0.00     231    999.0
 341    8:30   32.6    34    1.9   127      3.9   874.1    0.00     257    999.0
 341    8:40   34.2    32    2.5   170      4.1   874.1    0.00     283    999.0
 341    8:50   34.3    31    3.8   179      5.0   874.1    0.00     302    999.0
 341    9:00   35.7    30    3.8   182      5.4   874.2    0.00     332    999.0
 341    9:10   36.1    30    3.5   149      5.6   874.2    0.00     356    999.0
 341    9:20   37.0    29    3.6   151      6.3   874.2    0.00     378    999.0
 341    9:30   38.4    28    3.4   163      4.9   874.2    0.00     398    999.0
 341    9:40   39.8    26    3.7   145      6.2   874.2    0.00     418    999.0
 341    9:50   40.7    25    3.7   130      5.1   874.1    0.00     438    999.0
 341   10:00   41.8    24    3.4   129      5.0   874.0    0.00     445    999.0
 341   10:10   43.0    23    3.5   151      5.1   873.9    0.00     470    999.0
 341   10:20   43.9    22    3.8   154      5.8   873.8    0.00     487    999.0
 341   10:30   44.9    21    2.8   152      4.9   873.5    0.00     504    999.0
 341   10:40   45.5    21    3.2   126      4.8   873.3    0.00     520    999.0
 341   10:50   46.1    20    4.3   154      6.4   873.1    0.00     533    999.0
 341   11:00   47.0    20    4.4   156      7.5   873.0    0.00     524    999.0
 341   11:10   48.3    20    4.1   185      6.7   872.9    0.00     504    999.0
 341   11:20   48.9    19    3.9   185      7.2   872.6    0.00     494    999.0
 341   11:30   49.6    19    4.1   163      7.5   872.4    0.00     503    999.0
 341   11:40   50.1    20    5.0   165      8.3   872.2    0.00     505    999.0

Return to Sarcobatus Flat, Nevada graphs page.


Western Regional Climate Center,wrcc@dri.edu